Terminal Aerodrome Forecast
Issued by NWS Pueblo, CO

Home | Current Version | Previous Version | Text Only | Print | Product List | Glossary On
Versions: 1 2 3 4 5 6 7 8 9 10 11 12 13 14
000
FTUS45 KPUB 251120
TAFALS
TAF
KALS 251120Z 2512/2612 VRB04KT P6SM SKC
     FM252100 20007KT P6SM SKC
     FM260200 23008KT P6SM SCT200
     FM260400 VRB04KT P6SM SCT250=

USA.gov is the U.S. government's official web portal to all federal, state and local government web resources and services.